createdAt,value
2023-01-17T00:00:06.606Z,89
2023-01-17T00:30:19.122Z,87
2023-01-17T01:00:10.778Z,89
2023-01-17T02:00:02.183Z,85
2023-01-17T02:30:22.797Z,83
2023-01-17T03:00:06.106Z,82
2023-01-17T03:30:17.513Z,82
2023-01-17T04:00:00.696Z,83
2023-01-17T04:30:12.572Z,83
2023-01-17T05:00:03.138Z,84
2023-01-17T05:30:11.055Z,83
2023-01-17T06:30:07.572Z,82
2023-01-17T07:00:19.249Z,82
2023-01-17T07:30:22.369Z,82
2023-01-17T08:00:14.325Z,81
2023-01-17T08:30:19.061Z,81
2023-01-17T09:00:01.695Z,81
2023-01-17T09:30:03.482Z,78
2023-01-17T10:00:15.084Z,77
2023-01-17T10:30:07.839Z,74
2023-01-17T11:00:15.836Z,71
2023-01-17T11:30:18.179Z,69
2023-01-17T12:00:10.141Z,69
2023-01-17T12:30:13.134Z,70
2023-01-17T13:00:05.705Z,72
2023-01-17T13:30:26.296Z,70
2023-01-17T14:00:28.963Z,73
2023-01-17T14:30:11.015Z,73
2023-01-17T15:00:14.047Z,73
2023-01-17T16:00:05.131Z,79
2023-01-17T16:30:25.487Z,81
2023-01-17T17:00:09.224Z,83
2023-01-17T17:30:10.207Z,83
2023-01-17T18:00:22.761Z,83
2023-01-17T18:30:25.320Z,83
2023-01-17T19:00:06.344Z,83
2023-01-17T19:30:20.650Z,84
2023-01-17T20:30:19.955Z,84
2023-01-17T21:00:12.423Z,86
2023-01-17T21:30:02.990Z,85
2023-01-17T22:00:06.969Z,84
2023-01-17T22:30:01.974Z,84
2023-01-17T23:00:13.239Z,84
2023-01-17T23:30:04.643Z,84
